Time;durP1;ratioP1;P1;durP2;ratioP2;P2;SDS_P1;SDS_P2;PMS_P1;PMS_P2;Temp;Humidity;BMP_temperature;BMP_pressure;BME280_temperature;BME280_humidity;BME280_pressure;Samples;Min_cycle;Max_cycle;Signal;HPM_P1;HPM_P2
2022/01/19 00:00:18;;;;;;;9.75;7.10;;;;;;;;;;5035422;28;20123;-74
2022/01/19 00:02:50;;;;;;;7.20;6.35;;;;;;;;;;5034299;28;20115;-74
2022/01/19 00:05:20;;;;;;;8.60;6.57;;;;;;;;;;5035637;28;20032;-74
2022/01/19 00:07:49;;;;;;;8.70;6.65;;;;;;;;;;5035825;28;20029;-74
2022/01/19 00:10:19;;;;;;;8.10;6.53;;;;;;;;;;5034325;28;20033;-74
2022/01/19 00:12:46;;;;;;;7.78;6.05;;;;;;;;;;5037165;28;20105;-74
2022/01/19 00:15:13;;;;;;;8.27;6.07;;;;;;;;;;5055950;28;20389;-74
2022/01/19 00:17:45;;;;;;;7.82;6.05;;;;;;;;;;5054312;28;20025;-74
2022/01/19 00:20:11;;;;;;;8.85;6.25;;;;;;;;;;5056047;28;20550;-74
2022/01/19 00:22:37;;;;;;;8.13;6.22;;;;;;;;;;5054228;28;20061;-74
2022/01/19 00:25:04;;;;;;;8.35;6.30;;;;;;;;;;5054309;28;20404;-74
2022/01/19 00:27:31;;;;;;;6.90;5.57;;;;;;;;;;5055138;28;20029;-73
2022/01/19 00:29:57;;;;;;;6.82;5.65;;;;;;;;;;5054310;28;20031;-74
2022/01/19 00:32:25;;;;;;;6.72;5.55;;;;;;;;;;5054785;28;20301;-74
2022/01/19 00:34:51;;;;;;;7.07;5.53;;;;;;;;;;5036913;28;20099;-74
2022/01/19 00:37:17;;;;;;;7.88;5.78;;;;;;;;;;5035135;28;20026;-74
2022/01/19 00:39:48;;;;;;;7.60;5.72;;;;;;;;;;5035362;28;20167;-74
2022/01/19 00:42:17;;;;;;;7.47;5.40;;;;;;;;;;5046530;28;20404;-74
2022/01/19 00:44:49;;;;;;;7.93;5.78;;;;;;;;;;5054649;28;20036;-74
2022/01/19 00:47:15;;;;;;;7.82;6.03;;;;;;;;;;5053088;28;20114;-74
2022/01/19 00:49:42;;;;;;;8.10;5.38;;;;;;;;;;5055303;28;20024;-74
2022/01/19 00:52:12;;;;;;;7.40;5.13;;;;;;;;;;5053082;28;20017;-74
2022/01/19 00:54:39;;;;;;;6.55;5.13;;;;;;;;;;5053766;28;20029;-74
2022/01/19 00:57:12;;;;;;;7.10;5.57;;;;;;;;;;5053268;28;20025;-74
2022/01/19 00:59:38;;;;;;;6.88;5.53;;;;;;;;;;5053837;28;20033;-74
2022/01/19 01:02:04;;;;;;;6.82;5.38;;;;;;;;;;5053072;28;20557;-74
2022/01/19 01:04:32;;;;;;;6.35;5.28;;;;;;;;;;5053358;28;20037;-74
2022/01/19 01:06:58;;;;;;;6.97;5.20;;;;;;;;;;5054052;28;20025;-74
2022/01/19 01:09:24;;;;;;;6.35;5.22;;;;;;;;;;5054297;28;20025;-74
2022/01/19 01:11:59;;;;;;;6.85;5.20;;;;;;;;;;5053799;28;20056;-74
2022/01/19 01:18:16;;;;;;;6.20;4.97;;;;;;;;;;5034320;28;20048;-74
2022/01/19 01:19:58;;;;;;;7.18;5.43;;;;;;;;;;5033941;28;20103;-74
2022/01/19 01:22:24;;;;;;;6.22;5.38;;;;;;;;;;5033445;28;20121;-74
2022/01/19 01:24:50;;;;;;;5.38;4.75;;;;;;;;;;5034011;28;20501;-74
2022/01/19 01:27:16;;;;;;;6.75;5.07;;;;;;;;;;5034246;28;20018;-74
2022/01/19 01:29:42;;;;;;;5.78;4.85;;;;;;;;;;5032599;28;20026;-74
2022/01/19 01:32:08;;;;;;;5.95;4.85;;;;;;;;;;5033580;28;20112;-74
2022/01/19 01:34:35;;;;;;;6.68;5.20;;;;;;;;;;5050442;28;20025;-74
2022/01/19 01:37:01;;;;;;;7.07;4.40;;;;;;;;;;5052279;28;20025;-74
2022/01/19 01:39:27;;;;;;;5.68;4.88;;;;;;;;;;5054062;28;20025;-74
2022/01/19 01:41:53;;;;;;;6.10;5.00;;;;;;;;;;5042831;28;20473;-74
2022/01/19 01:44:20;;;;;;;5.53;4.38;;;;;;;;;;5034049;28;20469;-74
2022/01/19 01:46:54;;;;;;;5.03;4.40;;;;;;;;;;5033573;28;20051;-74
2022/01/19 01:49:43;;;;;;;4.43;4.03;;;;;;;;;;5033708;28;20029;-74
2022/01/19 01:54:51;;;;;;;5.93;4.65;;;;;;;;;;5033816;28;20044;-74
2022/01/19 01:57:17;;;;;;;7.47;4.85;;;;;;;;;;5033115;28;20112;-74
2022/01/19 01:59:43;;;;;;;5.07;4.43;;;;;;;;;;5032610;28;20557;-74
2022/01/19 02:02:09;;;;;;;5.28;4.60;;;;;;;;;;5032675;28;20512;-74
2022/01/19 02:04:40;;;;;;;7.60;4.93;;;;;;;;;;5031556;28;20025;-74
2022/01/19 02:09:55;;;;;;;6.25;4.68;;;;;;;;;;5043662;28;20139;-74
2022/01/19 02:23:36;;;;;;;6.43;5.20;;;;;;;;;;5037850;28;20140;-74
2022/01/19 02:26:06;;;;;;;5.20;4.22;;;;;;;;;;5031552;28;20498;-74
2022/01/19 02:42:17;;;;;;;4.53;3.97;;;;;;;;;;5045360;28;20457;-73
2022/01/19 02:49:45;;;;;;;5.65;4.20;;;;;;;;;;5052636;28;20025;-73
2022/01/19 02:52:12;;;;;;;7.13;4.97;;;;;;;;;;5051904;28;20508;-73
2022/01/19 02:54:38;;;;;;;5.78;4.57;;;;;;;;;;5051520;28;20477;-73
2022/01/19 02:57:07;;;;;;;6.55;4.28;;;;;;;;;;5052318;28;20036;-73
2022/01/19 03:10:33;;;;;;;6.40;5.10;;;;;;;;;;5053843;28;20450;-73
2022/01/19 03:12:59;;;;;;;6.93;5.22;;;;;;;;;;5056966;28;20122;-73
2022/01/19 03:15:25;;;;;;;6.88;5.03;;;;;;;;;;5037853;28;20029;-73
2022/01/19 03:17:53;;;;;;;5.78;4.40;;;;;;;;;;5037739;28;20112;-73
2022/01/19 03:20:19;;;;;;;5.03;4.20;;;;;;;;;;5039288;28;20029;-73
2022/01/19 03:23:17;;;;;;;5.72;4.18;;;;;;;;;;5037795;28;20623;-73
2022/01/19 03:25:37;;;;;;;5.78;4.70;;;;;;;;;;5038817;28;20489;-73
2022/01/19 03:28:04;;;;;;;6.43;5.07;;;;;;;;;;5037433;28;20083;-73
2022/01/19 03:30:30;;;;;;;7.15;5.18;;;;;;;;;;5039207;28;20036;-73
2022/01/19 03:32:56;;;;;;;6.30;4.85;;;;;;;;;;5041932;28;20586;-73
2022/01/19 03:35:22;;;;;;;6.78;4.75;;;;;;;;;;5059115;28;20037;-73
2022/01/19 03:37:48;;;;;;;5.43;4.65;;;;;;;;;;5058705;28;20451;-73
2022/01/19 03:40:14;;;;;;;6.10;4.57;;;;;;;;;;5057542;28;20124;-73
2022/01/19 03:42:41;;;;;;;8.02;4.68;;;;;;;;;;5042077;28;20025;-73
2022/01/19 03:45:08;;;;;;;5.90;4.68;;;;;;;;;;5038520;28;20030;-73
2022/01/19 03:47:45;;;;;;;6.43;4.93;;;;;;;;;;5038582;28;20112;-73
2022/01/19 03:50:12;;;;;;;5.93;4.78;;;;;;;;;;5038733;28;20021;-73
2022/01/19 03:52:38;;;;;;;6.53;4.45;;;;;;;;;;5037374;28;20029;-73
2022/01/19 03:55:04;;;;;;;7.05;4.93;;;;;;;;;;5038758;28;20029;-73
2022/01/19 03:57:31;;;;;;;6.18;4.68;;;;;;;;;;5038585;28;20042;-73
2022/01/19 03:59:57;;;;;;;8.40;4.93;;;;;;;;;;5038647;28;20497;-73
2022/01/19 04:02:23;;;;;;;7.30;4.70;;;;;;;;;;5038177;28;20156;-73
2022/01/19 04:05:05;;;;;;;5.97;4.40;;;;;;;;;;5038677;28;20036;-73
2022/01/19 04:07:31;;;;;;;6.40;4.53;;;;;;;;;;5037295;28;20022;-73
2022/01/19 04:09:57;;;;;;;6.65;4.65;;;;;;;;;;5037438;28;20511;-73
2022/01/19 04:12:46;;;;;;;6.95;4.35;;;;;;;;;;5036781;28;20033;-73
2022/01/19 04:15:13;;;;;;;7.00;4.63;;;;;;;;;;5038564;28;20495;-73
2022/01/19 04:17:45;;;;;;;5.88;4.13;;;;;;;;;;5038640;28;20404;-73
2022/01/19 04:20:12;;;;;;;6.47;4.57;;;;;;;;;;5038788;28;20021;-73
2022/01/19 04:22:38;;;;;;;6.15;4.70;;;;;;;;;;5036219;28;20084;-73
2022/01/19 04:25:04;;;;;;;6.25;4.60;;;;;;;;;;5035389;28;20059;-73
2022/01/19 04:30:06;;;;;;;6.32;4.00;;;;;;;;;;5035242;28;20033;-73
2022/01/19 04:35:20;;;;;;;5.85;4.45;;;;;;;;;;5035306;28;20029;-73
2022/01/19 05:05:25;;;;;;;6.03;3.88;;;;;;;;;;5043779;28;20037;-73
2022/01/19 05:15:46;;;;;;;4.53;3.92;;;;;;;;;;5054705;28;20472;-73
2022/01/19 05:18:13;;;;;;;4.70;4.05;;;;;;;;;;5047442;28;20029;-73
2022/01/19 05:20:39;;;;;;;4.07;3.67;;;;;;;;;;5034145;28;20033;-73
2022/01/19 05:23:05;;;;;;;4.53;3.58;;;;;;;;;;5034456;28;20045;-73
2022/01/19 05:25:31;;;;;;;5.20;4.18;;;;;;;;;;5034118;28;20398;-73
2022/01/19 05:27:57;;;;;;;7.32;4.18;;;;;;;;;;5034067;28;20124;-73
2022/01/19 05:30:23;;;;;;;6.40;4.22;;;;;;;;;;5034106;28;20028;-73
2022/01/19 05:32:50;;;;;;;4.68;4.13;;;;;;;;;;5033060;28;20124;-73
2022/01/19 05:35:16;;;;;;;4.57;3.88;;;;;;;;;;5033593;28;20025;-73
2022/01/19 05:37:42;;;;;;;4.65;3.80;;;;;;;;;;5033859;28;20083;-73
2022/01/19 05:40:10;;;;;;;4.88;3.95;;;;;;;;;;5033931;28;20026;-73
2022/01/19 05:42:36;;;;;;;3.85;3.42;;;;;;;;;;5048493;28;20400;-73
2022/01/19 05:45:03;;;;;;;5.88;3.72;;;;;;;;;;5052338;28;20052;-73
2022/01/19 05:47:30;;;;;;;5.25;3.83;;;;;;;;;;5053794;28;20036;-73
2022/01/19 05:49:56;;;;;;;6.88;4.03;;;;;;;;;;5053552;28;20021;-73
2022/01/19 05:52:22;;;;;;;4.10;3.42;;;;;;;;;;5047513;28;20025;-73
2022/01/19 05:54:48;;;;;;;5.45;4.10;;;;;;;;;;5032143;28;20017;-73
2022/01/19 05:57:14;;;;;;;5.25;3.60;;;;;;;;;;5032339;28;20037;-73
2022/01/19 05:59:41;;;;;;;4.43;3.67;;;;;;;;;;5032085;28;20079;-74
2022/01/19 06:02:07;;;;;;;4.68;3.90;;;;;;;;;;5033211;28;20485;-74
2022/01/19 06:04:33;;;;;;;3.78;3.22;;;;;;;;;;5033187;28;20033;-74
2022/01/19 06:07:01;;;;;;;4.28;3.47;;;;;;;;;;5033442;28;20040;-74
2022/01/19 06:09:49;;;;;;;4.35;3.53;;;;;;;;;;5033386;28;20013;-74
2022/01/19 06:12:16;;;;;;;3.70;3.28;;;;;;;;;;5032422;28;20021;-74
2022/01/19 06:14:43;;;;;;;4.30;3.47;;;;;;;;;;5049338;28;20496;-74
2022/01/19 06:17:10;;;;;;;5.03;3.58;;;;;;;;;;5053180;28;20146;-74
2022/01/19 06:19:37;;;;;;;4.20;3.38;;;;;;;;;;5053065;28;20025;-74
2022/01/19 06:22:03;;;;;;;4.40;3.67;;;;;;;;;;5052514;28;20512;-74
2022/01/19 06:24:29;;;;;;;4.13;3.47;;;;;;;;;;5052979;28;20033;-74
2022/01/19 06:26:55;;;;;;;4.78;3.72;;;;;;;;;;5053203;28;20532;-74
2022/01/19 06:29:22;;;;;;;5.30;3.50;;;;;;;;;;5052901;28;20039;-74
2022/01/19 06:31:48;;;;;;;5.68;3.22;;;;;;;;;;5052577;28;20029;-74
2022/01/19 06:34:14;;;;;;;3.70;3.30;;;;;;;;;;5052968;28;20021;-74
2022/01/19 06:36:40;;;;;;;3.22;2.78;;;;;;;;;;5052747;28;20025;-74
2022/01/19 06:39:07;;;;;;;3.88;2.95;;;;;;;;;;5053283;28;20472;-74
2022/01/19 06:41:33;;;;;;;4.30;3.35;;;;;;;;;;5044584;28;20136;-74
2022/01/19 06:43:59;;;;;;;3.60;2.97;;;;;;;;;;5033151;28;20052;-74
2022/01/19 06:46:25;;;;;;;2.88;2.60;;;;;;;;;;5030594;28;20029;-74
2022/01/19 06:48:51;;;;;;;4.15;2.75;;;;;;;;;;5032931;28;20304;-74
2022/01/19 06:51:18;;;;;;;3.92;3.30;;;;;;;;;;5030668;28;20030;-74
2022/01/19 06:53:44;;;;;;;4.43;3.13;;;;;;;;;;5048919;28;20024;-74
2022/01/19 06:56:10;;;;;;;3.42;2.70;;;;;;;;;;5052568;28;20520;-74
2022/01/19 06:58:36;;;;;;;3.28;2.97;;;;;;;;;;5052487;28;20044;-74
2022/01/19 07:01:02;;;;;;;4.45;3.15;;;;;;;;;;5052689;28;20055;-74
2022/01/19 07:03:31;;;;;;;3.30;2.65;;;;;;;;;;5052164;28;20025;-74
2022/01/19 07:05:58;;;;;;;4.15;3.03;;;;;;;;;;5052342;28;20033;-74
2022/01/19 07:08:24;;;;;;;3.90;3.17;;;;;;;;;;5052443;28;20109;-74
2022/01/19 07:10:50;;;;;;;4.95;3.20;;;;;;;;;;5052256;28;20025;-74
2022/01/19 07:13:17;;;;;;;3.63;3.00;;;;;;;;;;5047405;28;20021;-74
2022/01/19 07:15:43;;;;;;;4.90;3.17;;;;;;;;;;5032633;28;20030;-74
2022/01/19 07:18:09;;;;;;;3.25;2.80;;;;;;;;;;5032646;28;20038;-74
2022/01/19 07:20:36;;;;;;;3.05;2.60;;;;;;;;;;5031404;28;20056;-74
2022/01/19 07:23:02;;;;;;;3.45;3.05;;;;;;;;;;5032996;28;20488;-74
2022/01/19 07:25:29;;;;;;;3.65;2.80;;;;;;;;;;5032522;28;20036;-74
2022/01/19 07:27:55;;;;;;;3.30;2.72;;;;;;;;;;5032753;28;20026;-74
2022/01/19 07:30:21;;;;;;;3.55;2.65;;;;;;;;;;5032227;28;20038;-74
2022/01/19 07:32:49;;;;;;;3.58;2.95;;;;;;;;;;5032724;28;20493;-74
2022/01/19 07:35:16;;;;;;;3.35;2.88;;;;;;;;;;5031291;28;20018;-75
2022/01/19 07:37:43;;;;;;;4.20;2.90;;;;;;;;;;5032296;28;20036;-75
2022/01/19 07:40:09;;;;;;;4.10;3.05;;;;;;;;;;5032112;28;20022;-74
2022/01/19 07:42:35;;;;;;;3.83;2.78;;;;;;;;;;5048192;28;20399;-74
2022/01/19 07:45:01;;;;;;;4.28;3.00;;;;;;;;;;5052573;28;20029;-73
2022/01/19 07:47:28;;;;;;;4.53;3.17;;;;;;;;;;5052315;28;20029;-72
2022/01/19 07:49:56;;;;;;;3.10;2.72;;;;;;;;;;5053110;28;20033;-72
2022/01/19 07:52:22;;;;;;;2.90;2.58;;;;;;;;;;5046286;28;20033;-72
2022/01/19 07:54:48;;;;;;;3.63;3.03;;;;;;;;;;5030970;28;20028;-72
2022/01/19 07:57:15;;;;;;;4.13;2.80;;;;;;;;;;5040118;28;20029;-73
2022/01/19 07:59:41;;;;;;;2.90;2.50;;;;;;;;;;5042255;28;20059;-73
2022/01/19 08:02:07;;;;;;;4.00;3.17;;;;;;;;;;5032915;28;20036;-75
2022/01/19 08:04:34;;;;;;;4.82;2.85;;;;;;;;;;5048227;28;20025;-74
2022/01/19 08:07:00;;;;;;;3.50;3.05;;;;;;;;;;5051717;28;20029;-73
2022/01/19 08:09:26;;;;;;;5.05;3.08;;;;;;;;;;5038264;28;20484;-74
2022/01/19 08:11:56;;;;;;;4.22;3.03;;;;;;;;;;5042309;28;20032;-77
2022/01/19 08:14:24;;;;;;;5.10;3.35;;;;;;;;;;5046519;28;20029;-76
2022/01/19 08:16:51;;;;;;;3.67;2.70;;;;;;;;;;5046001;28;20032;-77
2022/01/19 08:19:17;;;;;;;5.15;3.38;;;;;;;;;;5036108;28;20489;-78
2022/01/19 08:21:43;;;;;;;4.20;3.03;;;;;;;;;;5040711;28;20025;-77
2022/01/19 08:24:09;;;;;;;5.75;3.30;;;;;;;;;;5045545;28;20044;-76
2022/01/19 08:26:36;;;;;;;7.50;3.70;;;;;;;;;;5046994;28;20160;-76
2022/01/19 08:29:04;;;;;;;4.93;3.40;;;;;;;;;;5043609;28;20026;-76
2022/01/19 08:31:31;;;;;;;7.00;2.97;;;;;;;;;;5032329;28;20033;-77
2022/01/19 08:33:57;;;;;;;4.38;3.08;;;;;;;;;;5040690;28;20025;-76
2022/01/19 08:36:26;;;;;;;5.45;3.15;;;;;;;;;;5038498;28;20529;-76
2022/01/19 08:38:53;;;;;;;3.63;3.15;;;;;;;;;;5043626;28;20049;-76
2022/01/19 08:41:20;;;;;;;4.28;3.45;;;;;;;;;;5038471;28;20061;-76
2022/01/19 08:43:46;;;;;;;4.85;3.20;;;;;;;;;;5046394;28;20080;-73
2022/01/19 08:46:12;;;;;;;5.82;3.72;;;;;;;;;;5038468;28;20028;-74
2022/01/19 08:48:38;;;;;;;4.93;3.38;;;;;;;;;;5046237;28;20082;-74
2022/01/19 08:51:05;;;;;;;6.57;3.10;;;;;;;;;;5037525;28;20103;-74
2022/01/19 08:53:32;;;;;;;4.07;3.38;;;;;;;;;;5041452;28;20055;-74
2022/01/19 08:55:58;;;;;;;5.07;3.75;;;;;;;;;;5047692;28;20021;-75
2022/01/19 08:58:24;;;;;;;7.88;3.92;;;;;;;;;;5044285;28;20053;-74
2022/01/19 09:00:53;;;;;;;4.50;3.22;;;;;;;;;;5040547;28;20152;-75
2022/01/19 09:03:19;;;;;;;4.82;3.70;;;;;;;;;;5037524;28;20400;-74
2022/01/19 09:05:46;;;;;;;9.13;3.80;;;;;;;;;;5038032;28;20029;-74
2022/01/19 09:08:12;;;;;;;6.15;3.22;;;;;;;;;;5045946;28;20048;-74
2022/01/19 09:10:41;;;;;;;5.50;3.70;;;;;;;;;;5041919;28;20029;-74
2022/01/19 09:13:07;;;;;;;3.95;3.10;;;;;;;;;;5046106;28;20018;-73
2022/01/19 09:15:34;;;;;;;5.57;3.50;;;;;;;;;;5042872;28;20768;-73
2022/01/19 09:18:00;;;;;;;6.38;3.50;;;;;;;;;;5043314;28;20096;-74
2022/01/19 09:20:26;;;;;;;5.70;3.63;;;;;;;;;;5049397;28;20033;-74
2022/01/19 09:22:53;;;;;;;4.43;3.70;;;;;;;;;;5042897;28;20059;-73
2022/01/19 09:25:19;;;;;;;5.10;3.33;;;;;;;;;;5035448;28;20090;-74
2022/01/19 09:27:45;;;;;;;6.68;3.30;;;;;;;;;;5042761;28;20029;-73
2022/01/19 09:30:16;;;;;;;5.30;3.40;;;;;;;;;;5039736;28;20025;-74
2022/01/19 09:32:45;;;;;;;6.25;3.65;;;;;;;;;;5042911;28;20041;-73
2022/01/19 09:35:11;;;;;;;8.30;4.32;;;;;;;;;;5040496;28;20033;-73
2022/01/19 09:37:38;;;;;;;5.68;3.50;;;;;;;;;;5045353;28;20063;-74
2022/01/19 09:40:06;;;;;;;5.07;3.63;;;;;;;;;;5039636;28;20032;-73
2022/01/19 09:42:32;;;;;;;5.57;3.60;;;;;;;;;;5050155;28;20031;-73
2022/01/19 09:44:58;;;;;;;4.07;3.38;;;;;;;;;;5037846;28;20029;-74
2022/01/19 09:47:24;;;;;;;6.07;3.60;;;;;;;;;;5045347;28;20511;-74
2022/01/19 09:49:51;;;;;;;5.47;3.00;;;;;;;;;;5048197;28;20021;-74
2022/01/19 09:52:17;;;;;;;4.82;3.08;;;;;;;;;;5039215;28;20063;-75
2022/01/19 09:54:43;;;;;;;5.05;3.47;;;;;;;;;;5046503;28;20039;-75
2022/01/19 09:57:09;;;;;;;4.45;3.13;;;;;;;;;;5040388;28;20475;-75
2022/01/19 09:59:35;;;;;;;6.68;3.40;;;;;;;;;;5031704;28;20036;-76
2022/01/19 10:02:06;;;;;;;6.03;3.50;;;;;;;;;;5037504;28;20089;-75
2022/01/19 10:04:33;;;;;;;7.03;3.70;;;;;;;;;;5040935;28;20064;-76
2022/01/19 10:07:29;;;;;;;7.10;4.20;;;;;;;;;;5030984;28;20421;-76
2022/01/19 10:09:59;;;;;;;4.57;3.25;;;;;;;;;;5042485;28;20041;-75
2022/01/19 10:18:17;;;;;;;7.75;3.92;;;;;;;;;;5040209;28;20070;-76
2022/01/19 10:20:44;;;;;;;5.32;3.38;;;;;;;;;;5038583;28;20021;-76
2022/01/19 10:23:33;;;;;;;6.28;3.88;;;;;;;;;;5039589;28;20400;-76
2022/01/19 10:25:59;;;;;;;7.45;3.30;;;;;;;;;;5036356;28;20671;-76
2022/01/19 10:28:25;;;;;;;7.28;4.20;;;;;;;;;;5044937;28;20031;-76
2022/01/19 10:30:52;;;;;;;5.65;4.13;;;;;;;;;;5048456;28;20056;-76
2022/01/19 10:33:18;;;;;;;5.93;3.53;;;;;;;;;;5041237;28;20029;-76
2022/01/19 10:35:46;;;;;;;5.70;3.70;;;;;;;;;;5037319;28;20369;-75
2022/01/19 10:38:15;;;;;;;7.15;3.33;;;;;;;;;;5035122;28;20056;-76
2022/01/19 10:40:43;;;;;;;6.47;3.65;;;;;;;;;;5049038;28;20362;-76
2022/01/19 10:43:28;;;;;;;8.82;4.57;;;;;;;;;;5046281;28;20484;-76
2022/01/19 10:45:55;;;;;;;5.10;3.33;;;;;;;;;;5043917;28;20040;-76
2022/01/19 10:48:31;;;;;;;8.90;3.13;;;;;;;;;;5046654;28;20082;-76
2022/01/19 10:51:12;;;;;;;7.13;3.20;;;;;;;;;;5045940;28;20021;-76
2022/01/19 10:53:39;;;;;;;8.02;3.63;;;;;;;;;;5047120;28;20029;-75
2022/01/19 10:56:05;;;;;;;10.70;4.82;;;;;;;;;;5045613;28;20567;-76
2022/01/19 10:58:32;;;;;;;5.35;3.60;;;;;;;;;;5039766;28;20056;-75
2022/01/19 11:00:58;;;;;;;6.78;2.90;;;;;;;;;;5041917;28;20025;-75
2022/01/19 11:03:26;;;;;;;6.63;3.17;;;;;;;;;;5028789;28;20416;-75
2022/01/19 11:05:53;;;;;;;4.82;3.47;;;;;;;;;;5040101;28;20037;-75
2022/01/19 11:08:20;;;;;;;6.80;3.00;;;;;;;;;;5039340;28;20144;-75
2022/01/19 11:10:49;;;;;;;6.78;3.85;;;;;;;;;;5044478;28;20519;-75
2022/01/19 11:13:31;;;;;;;7.40;2.40;;;;;;;;;;5041755;28;20412;-76
2022/01/19 11:15:58;;;;;;;5.60;3.10;;;;;;;;;;5042753;28;20623;-77
2022/01/19 11:18:29;;;;;;;6.43;3.30;;;;;;;;;;5041729;28;20447;-76
2022/01/19 11:20:57;;;;;;;7.00;3.30;;;;;;;;;;5033415;28;20104;-77
2022/01/19 11:23:23;;;;;;;8.07;4.07;;;;;;;;;;5042323;28;20037;-76
2022/01/19 11:25:51;;;;;;;5.72;2.70;;;;;;;;;;5050761;28;20512;-76
2022/01/19 11:28:25;;;;;;;5.38;2.67;;;;;;;;;;5048430;28;20033;-76
2022/01/19 11:30:53;;;;;;;8.63;3.40;;;;;;;;;;5047234;28;20021;-74
2022/01/19 11:33:24;;;;;;;5.72;2.95;;;;;;;;;;5050928;28;20065;-74
2022/01/19 11:35:51;;;;;;;6.07;2.88;;;;;;;;;;5047380;28;20508;-75
2022/01/19 11:38:33;;;;;;;9.77;2.55;;;;;;;;;;5032603;28;20638;-75
2022/01/19 11:41:02;;;;;;;3.65;2.35;;;;;;;;;;5041662;28;20029;-76
2022/01/19 11:43:30;;;;;;;8.07;2.47;;;;;;;;;;5047311;28;20029;-77
2022/01/19 11:45:57;;;;;;;6.88;3.08;;;;;;;;;;5050592;28;20025;-76
2022/01/19 11:48:25;;;;;;;6.47;2.55;;;;;;;;;;5048232;28;20091;-76
2022/01/19 11:50:52;;;;;;;4.57;2.72;;;;;;;;;;5060252;28;20029;-76
2022/01/19 11:53:19;;;;;;;5.25;1.92;;;;;;;;;;5055704;28;20029;-75
2022/01/19 11:56:09;;;;;;;5.50;2.80;;;;;;;;;;5043381;28;20079;-75
2022/01/19 11:58:35;;;;;;;5.93;2.38;;;;;;;;;;5035719;28;20053;-76
2022/01/19 12:01:02;;;;;;;9.45;2.05;;;;;;;;;;5040083;28;20373;-75
2022/01/19 12:03:30;;;;;;;6.30;2.28;;;;;;;;;;5030590;28;20116;-75
2022/01/19 12:05:56;;;;;;;17.10;2.72;;;;;;;;;;5045287;28;20021;-76
2022/01/19 12:08:27;;;;;;;7.22;2.30;;;;;;;;;;5045297;28;20124;-75
2022/01/19 12:10:56;;;;;;;12.13;2.25;;;;;;;;;;5034376;28;20481;-75
2022/01/19 12:16:16;;;;;;;8.27;2.30;;;;;;;;;;5039970;28;20026;-75
2022/01/19 12:18:47;;;;;;;10.98;2.50;;;;;;;;;;5034550;28;20160;-75
2022/01/19 12:21:16;;;;;;;6.85;2.00;;;;;;;;;;5044134;28;20108;-75
2022/01/19 12:23:43;;;;;;;7.78;2.20;;;;;;;;;;5050044;28;20033;-75
2022/01/19 12:26:10;;;;;;;7.30;2.10;;;;;;;;;;5050599;28;20036;-75
2022/01/19 12:28:44;;;;;;;4.53;1.45;;;;;;;;;;5051008;28;20025;-75
2022/01/19 12:31:25;;;;;;;7.32;1.70;;;;;;;;;;5037202;28;20033;-74
2022/01/19 12:34:04;;;;;;;4.80;1.90;;;;;;;;;;5038325;28;20018;-74
2022/01/19 12:36:40;;;;;;;6.25;2.05;;;;;;;;;;5031728;28;20440;-74
2022/01/19 12:39:25;;;;;;;6.82;2.13;;;;;;;;;;5033981;28;20485;-74
2022/01/19 12:41:56;;;;;;;5.85;1.77;;;;;;;;;;5036188;28;20252;-74
2022/01/19 12:44:40;;;;;;;4.18;1.75;;;;;;;;;;5036860;28;20021;-74
2022/01/19 12:47:28;;;;;;;4.57;1.77;;;;;;;;;;5049190;28;20070;-74
2022/01/19 12:50:00;;;;;;;3.40;1.95;;;;;;;;;;5048676;28;20446;-74
2022/01/19 12:52:27;;;;;;;3.75;1.70;;;;;;;;;;5049009;28;20016;-74
2022/01/19 12:54:54;;;;;;;7.22;2.55;;;;;;;;;;5053969;28;20044;-74
2022/01/19 12:57:21;;;;;;;4.78;1.88;;;;;;;;;;5035955;28;20116;-74
2022/01/19 12:59:49;;;;;;;6.15;2.05;;;;;;;;;;5032480;28;20566;-73
2022/01/19 13:02:16;;;;;;;7.15;2.35;;;;;;;;;;5042957;28;20112;-73
2022/01/19 13:04:45;;;;;;;8.27;2.33;;;;;;;;;;5038357;28;20459;-74
2022/01/19 13:07:22;;;;;;;3.45;1.90;;;;;;;;;;5051295;28;20031;-74
2022/01/19 13:10:27;;;;;;;5.05;2.17;;;;;;;;;;5045731;28;20017;-75
2022/01/19 13:13:04;;;;;;;4.80;2.33;;;;;;;;;;5039486;28;20030;-74
2022/01/19 13:15:47;;;;;;;2.53;1.42;;;;;;;;;;5034429;28;20108;-74
2022/01/19 13:18:32;;;;;;;2.95;1.60;;;;;;;;;;5034391;28;20492;-74
2022/01/19 13:21:03;;;;;;;3.50;1.98;;;;;;;;;;5047913;28;20044;-75
2022/01/19 13:23:31;;;;;;;6.75;1.75;;;;;;;;;;5048317;28;20090;-75
2022/01/19 13:26:05;;;;;;;3.90;1.80;;;;;;;;;;5049009;28;20029;-75
2022/01/19 13:28:32;;;;;;;5.93;2.00;;;;;;;;;;5050961;28;20052;-75
2022/01/19 13:31:11;;;;;;;4.63;1.77;;;;;;;;;;5032542;28;20029;-75
2022/01/19 13:33:37;;;;;;;7.07;1.73;;;;;;;;;;5044964;28;20419;-75
2022/01/19 13:36:04;;;;;;;4.53;1.92;;;;;;;;;;5033718;28;20029;-75
2022/01/19 13:38:30;;;;;;;7.13;1.60;;;;;;;;;;5038425;28;20029;-76
2022/01/19 13:41:04;;;;;;;3.35;1.75;;;;;;;;;;5046185;28;20108;-75
2022/01/19 13:43:32;;;;;;;4.40;1.70;;;;;;;;;;5037702;28;20568;-76
2022/01/19 13:46:12;;;;;;;6.60;1.83;;;;;;;;;;5046238;28;20083;-76
2022/01/19 13:48:39;;;;;;;4.93;1.67;;;;;;;;;;5034566;28;20488;-76
2022/01/19 13:51:06;;;;;;;3.90;1.88;;;;;;;;;;5045350;28;20044;-75
2022/01/19 13:53:34;;;;;;;3.60;1.20;;;;;;;;;;5042529;28;20552;-76
2022/01/19 13:56:02;;;;;;;4.68;1.63;;;;;;;;;;5037129;28;20391;-75
2022/01/19 13:58:33;;;;;;;7.88;1.45;;;;;;;;;;5044974;28;20068;-74
2022/01/19 14:01:03;;;;;;;3.67;1.30;;;;;;;;;;5046356;28;20111;-76
2022/01/19 14:03:48;;;;;;;2.55;1.50;;;;;;;;;;5030693;28;20030;-74
2022/01/19 14:06:43;;;;;;;3.47;1.40;;;;;;;;;;5028687;28;20517;-74
2022/01/19 14:09:18;;;;;;;2.60;1.67;;;;;;;;;;5040745;28;20048;-74
2022/01/19 14:11:49;;;;;;;3.45;1.65;;;;;;;;;;5028777;28;20032;-74
2022/01/19 14:14:21;;;;;;;3.40;1.52;;;;;;;;;;5031456;28;20028;-76
2022/01/19 14:16:48;;;;;;;2.70;1.42;;;;;;;;;;5045112;28;20044;-76
2022/01/19 14:19:25;;;;;;;6.35;1.45;;;;;;;;;;5038014;28;20018;-77
2022/01/19 14:22:03;;;;;;;3.17;1.80;;;;;;;;;;5035160;28;20440;-76
2022/01/19 14:24:50;;;;;;;3.15;1.63;;;;;;;;;;5043253;28;20032;-77
2022/01/19 14:27:17;;;;;;;3.33;1.45;;;;;;;;;;5045328;28;20049;-77
2022/01/19 14:30:03;;;;;;;2.88;1.42;;;;;;;;;;5034834;28;20035;-76
2022/01/19 14:32:41;;;;;;;4.43;1.50;;;;;;;;;;5039474;28;20033;-74
2022/01/19 14:35:26;;;;;;;2.67;1.38;;;;;;;;;;5033114;28;20075;-76
2022/01/19 14:38:07;;;;;;;2.13;1.40;;;;;;;;;;5036344;28;20067;-76
2022/01/19 14:40:56;;;;;;;2.65;1.30;;;;;;;;;;5037157;28;20083;-76
2022/01/19 14:43:25;;;;;;;3.38;1.45;;;;;;;;;;5036085;28;20707;-77
2022/01/19 14:45:56;;;;;;;1.60;1.20;;;;;;;;;;5047949;28;20025;-76
2022/01/19 14:48:25;;;;;;;2.20;1.20;;;;;;;;;;5046468;28;20025;-76
2022/01/19 14:50:51;;;;;;;2.10;1.10;;;;;;;;;;5047883;28;20032;-75
2022/01/19 14:53:17;;;;;;;3.70;1.27;;;;;;;;;;5041536;28;20044;-77
2022/01/19 14:55:44;;;;;;;2.90;1.00;;;;;;;;;;5047774;28;20028;-77
2022/01/19 14:58:10;;;;;;;2.38;1.20;;;;;;;;;;5041330;28;20037;-76
2022/01/19 15:00:38;;;;;;;1.48;0.95;;;;;;;;;;5034300;28;20037;-75
2022/01/19 15:03:04;;;;;;;2.63;1.13;;;;;;;;;;5029747;28;20033;-75
2022/01/19 15:05:40;;;;;;;1.58;0.95;;;;;;;;;;5034467;28;20036;-75
2022/01/19 15:08:08;;;;;;;2.65;0.93;;;;;;;;;;5032994;28;20029;-75
2022/01/19 15:10:36;;;;;;;3.85;1.27;;;;;;;;;;5046112;28;20190;-75
2022/01/19 15:13:04;;;;;;;2.40;1.17;;;;;;;;;;5040226;28;20119;-75
2022/01/19 15:15:31;;;;;;;1.23;0.90;;;;;;;;;;5033806;28;20029;-75
2022/01/19 15:17:59;;;;;;;1.33;0.85;;;;;;;;;;5031536;28;20033;-75
2022/01/19 15:20:28;;;;;;;1.77;1.00;;;;;;;;;;5033272;28;20035;-74
2022/01/19 15:22:59;;;;;;;2.03;0.82;;;;;;;;;;5043286;28;20040;-73
2022/01/19 15:25:36;;;;;;;3.72;0.85;;;;;;;;;;5045635;28;20025;-72
2022/01/19 15:28:03;;;;;;;1.48;0.75;;;;;;;;;;5045958;28;20475;-71
2022/01/19 15:30:29;;;;;;;0.98;0.70;;;;;;;;;;5032554;28;20109;-71
2022/01/19 15:32:56;;;;;;;1.40;0.50;;;;;;;;;;5034212;28;20448;-71
2022/01/19 15:35:22;;;;;;;2.67;0.95;;;;;;;;;;5035100;28;20029;-71
2022/01/19 15:37:50;;;;;;;2.28;1.00;;;;;;;;;;5043200;28;20526;-71
2022/01/19 15:40:17;;;;;;;1.80;0.75;;;;;;;;;;5041954;28;20045;-71
2022/01/19 15:42:44;;;;;;;3.92;0.90;;;;;;;;;;5044830;28;20061;-71
2022/01/19 15:45:11;;;;;;;1.75;0.85;;;;;;;;;;5036595;28;20056;-71
2022/01/19 15:47:38;;;;;;;2.20;0.90;;;;;;;;;;5041455;28;20413;-71
2022/01/19 15:50:05;;;;;;;4.18;0.90;;;;;;;;;;5048991;28;20124;-71
2022/01/19 15:52:31;;;;;;;1.98;1.00;;;;;;;;;;5042002;28;20032;-71
2022/01/19 15:54:57;;;;;;;1.35;0.77;;;;;;;;;;5041609;28;20021;-70
2022/01/19 15:57:24;;;;;;;3.33;0.90;;;;;;;;;;5041943;28;20073;-71
2022/01/19 15:59:51;;;;;;;2.80;0.70;;;;;;;;;;5033735;28;20021;-70
2022/01/19 16:02:17;;;;;;;1.40;0.90;;;;;;;;;;5043170;28;20318;-71
2022/01/19 16:04:43;;;;;;;1.60;0.93;;;;;;;;;;5034174;28;20048;-70
2022/01/19 16:07:10;;;;;;;1.75;0.80;;;;;;;;;;5031344;28;20036;-72
2022/01/19 16:09:36;;;;;;;1.88;0.93;;;;;;;;;;5043121;28;20026;-71
2022/01/19 16:12:03;;;;;;;1.83;0.95;;;;;;;;;;5031390;28;20029;-71
2022/01/19 16:14:29;;;;;;;2.42;1.00;;;;;;;;;;5041670;28;20471;-71
2022/01/19 16:16:56;;;;;;;1.63;1.05;;;;;;;;;;5036869;28;20029;-71
2022/01/19 16:19:22;;;;;;;1.70;1.35;;;;;;;;;;5032341;28;20064;-71
2022/01/19 16:21:49;;;;;;;1.95;1.20;;;;;;;;;;5033237;28;20030;-71
2022/01/19 16:27:01;;;;;;;4.40;1.20;;;;;;;;;;5034624;28;20141;-72
2022/01/19 16:29:27;;;;;;;1.90;1.33;;;;;;;;;;5035232;28;20236;-71
2022/01/19 16:31:57;;;;;;;2.03;1.02;;;;;;;;;;5032193;28;20044;-71
2022/01/19 16:34:24;;;;;;;2.28;1.15;;;;;;;;;;5035690;28;20025;-71